sensor_id;sensor_type;location;lat;lon;timestamp;P1;durP1;ratioP1;P2;durP2;ratioP2
14698;SDS011;7439;50.804;4.602;2024-02-21T00:01:18;10.70;;;7.97;;
14698;SDS011;7439;50.804;4.602;2024-02-21T00:03:46;10.60;;;8.60;;
14698;SDS011;7439;50.804;4.602;2024-02-21T00:06:13;10.23;;;8.67;;
14698;SDS011;7439;50.804;4.602;2024-02-21T00:08:40;9.10;;;7.63;;
14698;SDS011;7439;50.804;4.602;2024-02-21T00:11:08;10.90;;;8.10;;
14698;SDS011;7439;50.804;4.602;2024-02-21T00:13:36;11.20;;;8.07;;
14698;SDS011;7439;50.804;4.602;2024-02-21T00:16:04;10.47;;;8.30;;
14698;SDS011;7439;50.804;4.602;2024-02-21T00:18:31;12.27;;;7.47;;
14698;SDS011;7439;50.804;4.602;2024-02-21T00:20:59;10.23;;;7.93;;
14698;SDS011;7439;50.804;4.602;2024-02-21T00:23:27;12.80;;;8.20;;
14698;SDS011;7439;50.804;4.602;2024-02-21T00:25:54;11.23;;;8.20;;
14698;SDS011;7439;50.804;4.602;2024-02-21T00:28:21;8.63;;;7.30;;
14698;SDS011;7439;50.804;4.602;2024-02-21T00:30:50;9.27;;;7.23;;
14698;SDS011;7439;50.804;4.602;2024-02-21T00:33:18;11.93;;;7.83;;
14698;SDS011;7439;50.804;4.602;2024-02-21T00:35:45;9.53;;;7.37;;
14698;SDS011;7439;50.804;4.602;2024-02-21T00:38:13;11.10;;;7.70;;
14698;SDS011;7439;50.804;4.602;2024-02-21T00:40:40;9.20;;;7.63;;
14698;SDS011;7439;50.804;4.602;2024-02-21T00:43:08;9.13;;;7.07;;
14698;SDS011;7439;50.804;4.602;2024-02-21T00:45:35;15.87;;;7.77;;
14698;SDS011;7439;50.804;4.602;2024-02-21T00:48:04;9.83;;;7.13;;
14698;SDS011;7439;50.804;4.602;2024-02-21T00:50:34;13.80;;;7.23;;
14698;SDS011;7439;50.804;4.602;2024-02-21T00:53:02;9.13;;;7.40;;
14698;SDS011;7439;50.804;4.602;2024-02-21T00:55:29;10.10;;;6.40;;
14698;SDS011;7439;50.804;4.602;2024-02-21T00:57:56;9.37;;;7.37;;
14698;SDS011;7439;50.804;4.602;2024-02-21T01:00:24;11.07;;;7.10;;
14698;SDS011;7439;50.804;4.602;2024-02-21T01:02:51;8.73;;;6.40;;
14698;SDS011;7439;50.804;4.602;2024-02-21T01:05:20;8.63;;;5.97;;
14698;SDS011;7439;50.804;4.602;2024-02-21T01:07:48;9.40;;;6.90;;
14698;SDS011;7439;50.804;4.602;2024-02-21T01:10:15;11.50;;;6.67;;
14698;SDS011;7439;50.804;4.602;2024-02-21T01:12:43;8.33;;;7.10;;
14698;SDS011;7439;50.804;4.602;2024-02-21T01:15:10;9.03;;;6.87;;
14698;SDS011;7439;50.804;4.602;2024-02-21T01:17:38;10.93;;;7.20;;
14698;SDS011;7439;50.804;4.602;2024-02-21T01:20:07;8.63;;;6.33;;
14698;SDS011;7439;50.804;4.602;2024-02-21T01:22:39;10.30;;;7.23;;
14698;SDS011;7439;50.804;4.602;2024-02-21T01:25:06;10.10;;;7.33;;
14698;SDS011;7439;50.804;4.602;2024-02-21T01:27:34;11.30;;;7.07;;
14698;SDS011;7439;50.804;4.602;2024-02-21T01:30:01;8.53;;;6.43;;
14698;SDS011;7439;50.804;4.602;2024-02-21T01:32:29;10.53;;;6.67;;
14698;SDS011;7439;50.804;4.602;2024-02-21T01:34:56;11.43;;;6.67;;
14698;SDS011;7439;50.804;4.602;2024-02-21T01:37:24;12.93;;;6.87;;
14698;SDS011;7439;50.804;4.602;2024-02-21T01:39:53;10.90;;;6.43;;
14698;SDS011;7439;50.804;4.602;2024-02-21T01:42:20;9.20;;;6.87;;
14698;SDS011;7439;50.804;4.602;2024-02-21T01:44:47;10.43;;;6.47;;
14698;SDS011;7439;50.804;4.602;2024-02-21T01:47:15;10.77;;;6.63;;
14698;SDS011;7439;50.804;4.602;2024-02-21T01:49:42;7.67;;;6.33;;
14698;SDS011;7439;50.804;4.602;2024-02-21T01:52:10;9.17;;;6.30;;
14698;SDS011;7439;50.804;4.602;2024-02-21T01:54:39;9.47;;;6.37;;
14698;SDS011;7439;50.804;4.602;2024-02-21T01:57:08;7.47;;;6.07;;
14698;SDS011;7439;50.804;4.602;2024-02-21T01:59:35;10.00;;;7.57;;
14698;SDS011;7439;50.804;4.602;2024-02-21T02:02:02;11.80;;;8.03;;
14698;SDS011;7439;50.804;4.602;2024-02-21T02:04:30;10.53;;;7.17;;
14698;SDS011;7439;50.804;4.602;2024-02-21T02:06:57;13.63;;;7.63;;
14698;SDS011;7439;50.804;4.602;2024-02-21T02:09:27;12.10;;;7.83;;
14698;SDS011;7439;50.804;4.602;2024-02-21T02:11:55;13.40;;;8.27;;
14698;SDS011;7439;50.804;4.602;2024-02-21T02:14:25;13.33;;;7.70;;
14698;SDS011;7439;50.804;4.602;2024-02-21T02:16:52;13.17;;;7.97;;
14698;SDS011;7439;50.804;4.602;2024-02-21T02:19:19;9.60;;;7.23;;
14698;SDS011;7439;50.804;4.602;2024-02-21T02:21:51;10.57;;;7.07;;
14698;SDS011;7439;50.804;4.602;2024-02-21T02:24:23;11.53;;;7.10;;
14698;SDS011;7439;50.804;4.602;2024-02-21T02:26:51;15.63;;;7.43;;
14698;SDS011;7439;50.804;4.602;2024-02-21T02:29:19;11.97;;;7.33;;
14698;SDS011;7439;50.804;4.602;2024-02-21T02:31:46;9.30;;;7.27;;
14698;SDS011;7439;50.804;4.602;2024-02-21T02:34:13;13.13;;;7.93;;
14698;SDS011;7439;50.804;4.602;2024-02-21T02:36:41;13.97;;;7.40;;
14698;SDS011;7439;50.804;4.602;2024-02-21T02:39:08;12.60;;;7.87;;
14698;SDS011;7439;50.804;4.602;2024-02-21T02:41:37;9.53;;;6.97;;
14698;SDS011;7439;50.804;4.602;2024-02-21T02:44:04;11.17;;;7.47;;
14698;SDS011;7439;50.804;4.602;2024-02-21T02:46:32;11.40;;;7.27;;
14698;SDS011;7439;50.804;4.602;2024-02-21T02:48:59;9.70;;;6.90;;
14698;SDS011;7439;50.804;4.602;2024-02-21T02:51:27;9.53;;;7.87;;
14698;SDS011;7439;50.804;4.602;2024-02-21T02:53:54;11.67;;;7.50;;
14698;SDS011;7439;50.804;4.602;2024-02-21T02:56:22;10.87;;;8.23;;
14698;SDS011;7439;50.804;4.602;2024-02-21T02:58:51;10.40;;;6.90;;
14698;SDS011;7439;50.804;4.602;2024-02-21T03:01:18;9.20;;;7.27;;
14698;SDS011;7439;50.804;4.602;2024-02-21T03:03:45;10.70;;;6.83;;
14698;SDS011;7439;50.804;4.602;2024-02-21T03:06:13;9.07;;;7.10;;
14698;SDS011;7439;50.804;4.602;2024-02-21T03:08:41;12.70;;;7.47;;
14698;SDS011;7439;50.804;4.602;2024-02-21T03:11:09;13.27;;;7.77;;
14698;SDS011;7439;50.804;4.602;2024-02-21T03:13:36;10.17;;;6.77;;
14698;SDS011;7439;50.804;4.602;2024-02-21T03:16:05;10.73;;;7.17;;
14698;SDS011;7439;50.804;4.602;2024-02-21T03:18:33;12.97;;;7.30;;
14698;SDS011;7439;50.804;4.602;2024-02-21T03:21:00;11.33;;;7.77;;
14698;SDS011;7439;50.804;4.602;2024-02-21T03:23:28;11.70;;;7.87;;
14698;SDS011;7439;50.804;4.602;2024-02-21T03:25:55;9.57;;;7.20;;
14698;SDS011;7439;50.804;4.602;2024-02-21T03:28:22;14.97;;;7.77;;
14698;SDS011;7439;50.804;4.602;2024-02-21T03:30:50;12.57;;;7.43;;
14698;SDS011;7439;50.804;4.602;2024-02-21T03:33:18;9.63;;;7.47;;
14698;SDS011;7439;50.804;4.602;2024-02-21T03:35:48;9.33;;;7.20;;
14698;SDS011;7439;50.804;4.602;2024-02-21T03:38:15;11.50;;;6.93;;
14698;SDS011;7439;50.804;4.602;2024-02-21T03:40:42;12.03;;;7.40;;
14698;SDS011;7439;50.804;4.602;2024-02-21T03:43:10;10.70;;;7.73;;
14698;SDS011;7439;50.804;4.602;2024-02-21T03:45:37;11.83;;;7.10;;
14698;SDS011;7439;50.804;4.602;2024-02-21T03:48:05;10.63;;;7.30;;
14698;SDS011;7439;50.804;4.602;2024-02-21T03:50:34;13.63;;;7.60;;
14698;SDS011;7439;50.804;4.602;2024-02-21T03:53:01;8.40;;;7.00;;
14698;SDS011;7439;50.804;4.602;2024-02-21T03:55:29;11.00;;;7.50;;
14698;SDS011;7439;50.804;4.602;2024-02-21T03:57:56;13.80;;;7.97;;
14698;SDS011;7439;50.804;4.602;2024-02-21T04:00:24;10.33;;;7.00;;
14698;SDS011;7439;50.804;4.602;2024-02-21T04:02:51;10.90;;;7.83;;
14698;SDS011;7439;50.804;4.602;2024-02-21T04:05:18;7.93;;;6.23;;
14698;SDS011;7439;50.804;4.602;2024-02-21T04:07:47;8.27;;;6.77;;
14698;SDS011;7439;50.804;4.602;2024-02-21T04:10:18;11.03;;;7.07;;
14698;SDS011;7439;50.804;4.602;2024-02-21T04:12:46;9.73;;;7.73;;
14698;SDS011;7439;50.804;4.602;2024-02-21T04:15:15;13.57;;;6.80;;
14698;SDS011;7439;50.804;4.602;2024-02-21T04:17:42;11.43;;;7.23;;
14698;SDS011;7439;50.804;4.602;2024-02-21T04:20:14;9.13;;;6.30;;
14698;SDS011;7439;50.804;4.602;2024-02-21T04:22:42;10.20;;;7.27;;
14698;SDS011;7439;50.804;4.602;2024-02-21T04:25:11;9.87;;;6.93;;
14698;SDS011;7439;50.804;4.602;2024-02-21T04:27:39;12.07;;;7.33;;
14698;SDS011;7439;50.804;4.602;2024-02-21T04:30:07;9.43;;;6.90;;
14698;SDS011;7439;50.804;4.602;2024-02-21T04:32:34;8.50;;;6.97;;
14698;SDS011;7439;50.804;4.602;2024-02-21T04:35:02;10.77;;;6.50;;
14698;SDS011;7439;50.804;4.602;2024-02-21T04:37:29;11.53;;;7.70;;
14698;SDS011;7439;50.804;4.602;2024-02-21T04:39:57;12.20;;;7.67;;
14698;SDS011;7439;50.804;4.602;2024-02-21T04:42:25;9.57;;;7.40;;
14698;SDS011;7439;50.804;4.602;2024-02-21T04:44:53;9.17;;;7.00;;
14698;SDS011;7439;50.804;4.602;2024-02-21T04:47:20;11.43;;;6.73;;
14698;SDS011;7439;50.804;4.602;2024-02-21T04:49:49;9.87;;;7.17;;
14698;SDS011;7439;50.804;4.602;2024-02-21T04:52:16;9.13;;;7.13;;
14698;SDS011;7439;50.804;4.602;2024-02-21T04:54:44;13.63;;;6.97;;
14698;SDS011;7439;50.804;4.602;2024-02-21T04:57:11;10.30;;;6.60;;
14698;SDS011;7439;50.804;4.602;2024-02-21T04:59:43;9.73;;;7.03;;
14698;SDS011;7439;50.804;4.602;2024-02-21T05:02:10;8.80;;;6.77;;
14698;SDS011;7439;50.804;4.602;2024-02-21T05:04:38;11.90;;;7.77;;
14698;SDS011;7439;50.804;4.602;2024-02-21T05:07:06;10.20;;;7.30;;
14698;SDS011;7439;50.804;4.602;2024-02-21T05:09:36;8.63;;;6.87;;
14698;SDS011;7439;50.804;4.602;2024-02-21T05:12:03;10.17;;;6.77;;
14698;SDS011;7439;50.804;4.602;2024-02-21T05:14:31;8.17;;;6.77;;
14698;SDS011;7439;50.804;4.602;2024-02-21T05:17:00;9.73;;;6.10;;
14698;SDS011;7439;50.804;4.602;2024-02-21T05:19:27;6.63;;;5.87;;
14698;SDS011;7439;50.804;4.602;2024-02-21T05:21:55;9.43;;;6.83;;
14698;SDS011;7439;50.804;4.602;2024-02-21T05:24:22;7.63;;;6.10;;
14698;SDS011;7439;50.804;4.602;2024-02-21T05:26:50;7.83;;;6.17;;
14698;SDS011;7439;50.804;4.602;2024-02-21T05:29:18;8.37;;;6.13;;
14698;SDS011;7439;50.804;4.602;2024-02-21T05:31:55;8.80;;;5.87;;
14698;SDS011;7439;50.804;4.602;2024-02-21T05:34:24;7.83;;;5.93;;
14698;SDS011;7439;50.804;4.602;2024-02-21T05:36:52;7.53;;;6.03;;
14698;SDS011;7439;50.804;4.602;2024-02-21T05:39:20;8.53;;;6.73;;
14698;SDS011;7439;50.804;4.602;2024-02-21T05:41:48;8.27;;;5.73;;
14698;SDS011;7439;50.804;4.602;2024-02-21T05:44:15;8.27;;;5.47;;
14698;SDS011;7439;50.804;4.602;2024-02-21T05:46:43;6.50;;;5.37;;
14698;SDS011;7439;50.804;4.602;2024-02-21T05:49:10;5.77;;;5.23;;
14698;SDS011;7439;50.804;4.602;2024-02-21T05:51:39;10.20;;;4.83;;
14698;SDS011;7439;50.804;4.602;2024-02-21T05:54:06;7.73;;;5.10;;
14698;SDS011;7439;50.804;4.602;2024-02-21T05:56:34;5.63;;;4.87;;
14698;SDS011;7439;50.804;4.602;2024-02-21T05:59:01;6.43;;;5.27;;
14698;SDS011;7439;50.804;4.602;2024-02-21T06:01:29;5.53;;;5.03;;
14698;SDS011;7439;50.804;4.602;2024-02-21T06:03:56;5.20;;;4.70;;
14698;SDS011;7439;50.804;4.602;2024-02-21T06:06:23;6.73;;;4.90;;
14698;SDS011;7439;50.804;4.602;2024-02-21T06:08:52;7.40;;;5.00;;
14698;SDS011;7439;50.804;4.602;2024-02-21T06:11:20;4.83;;;4.33;;
14698;SDS011;7439;50.804;4.602;2024-02-21T06:13:48;7.60;;;4.13;;
14698;SDS011;7439;50.804;4.602;2024-02-21T06:16:15;4.63;;;4.23;;
14698;SDS011;7439;50.804;4.602;2024-02-21T06:18:42;5.13;;;4.63;;
14698;SDS011;7439;50.804;4.602;2024-02-21T06:21:10;7.60;;;4.73;;
14698;SDS011;7439;50.804;4.602;2024-02-21T06:23:37;6.10;;;4.90;;
14698;SDS011;7439;50.804;4.602;2024-02-21T06:26:06;5.53;;;4.43;;
14698;SDS011;7439;50.804;4.602;2024-02-21T06:28:33;5.37;;;4.83;;
14698;SDS011;7439;50.804;4.602;2024-02-21T06:31:01;4.93;;;4.43;;
14698;SDS011;7439;50.804;4.602;2024-02-21T06:33:28;5.07;;;4.00;;
14698;SDS011;7439;50.804;4.602;2024-02-21T06:35:55;4.67;;;4.20;;
14698;SDS011;7439;50.804;4.602;2024-02-21T06:38:23;4.67;;;4.20;;
14698;SDS011;7439;50.804;4.602;2024-02-21T06:40:50;5.87;;;4.60;;
14698;SDS011;7439;50.804;4.602;2024-02-21T06:43:20;4.63;;;4.07;;
14698;SDS011;7439;50.804;4.602;2024-02-21T06:45:48;5.23;;;3.80;;
14698;SDS011;7439;50.804;4.602;2024-02-21T06:48:17;3.37;;;3.10;;
14698;SDS011;7439;50.804;4.602;2024-02-21T06:50:44;3.87;;;3.50;;
14698;SDS011;7439;50.804;4.602;2024-02-21T06:53:12;3.53;;;3.03;;
14698;SDS011;7439;50.804;4.602;2024-02-21T06:55:39;3.17;;;2.90;;
14698;SDS011;7439;50.804;4.602;2024-02-21T06:58:06;3.50;;;3.20;;
14698;SDS011;7439;50.804;4.602;2024-02-21T07:00:38;3.33;;;2.97;;
14698;SDS011;7439;50.804;4.602;2024-02-21T07:03:05;3.37;;;2.57;;
14698;SDS011;7439;50.804;4.602;2024-02-21T07:05:33;2.67;;;2.47;;
14698;SDS011;7439;50.804;4.602;2024-02-21T07:08:00;2.60;;;2.40;;
14698;SDS011;7439;50.804;4.602;2024-02-21T07:10:28;3.27;;;2.70;;
14698;SDS011;7439;50.804;4.602;2024-02-21T07:12:55;2.97;;;2.67;;
14698;SDS011;7439;50.804;4.602;2024-02-21T07:15:23;2.63;;;2.33;;
14698;SDS011;7439;50.804;4.602;2024-02-21T07:17:55;2.77;;;2.57;;
14698;SDS011;7439;50.804;4.602;2024-02-21T07:20:22;2.93;;;2.73;;
14698;SDS011;7439;50.804;4.602;2024-02-21T07:22:50;3.17;;;2.87;;
14698;SDS011;7439;50.804;4.602;2024-02-21T07:25:17;2.93;;;2.67;;
14698;SDS011;7439;50.804;4.602;2024-02-21T07:27:44;3.00;;;2.80;;
14698;SDS011;7439;50.804;4.602;2024-02-21T07:30:12;2.90;;;2.70;;
14698;SDS011;7439;50.804;4.602;2024-02-21T07:32:39;2.87;;;2.67;;
14698;SDS011;7439;50.804;4.602;2024-02-21T07:35:08;3.00;;;2.80;;
14698;SDS011;7439;50.804;4.602;2024-02-21T07:37:37;3.10;;;2.80;;
14698;SDS011;7439;50.804;4.602;2024-02-21T07:40:05;3.33;;;3.03;;
14698;SDS011;7439;50.804;4.602;2024-02-21T07:42:32;3.50;;;3.20;;
14698;SDS011;7439;50.804;4.602;2024-02-21T07:45:00;3.23;;;2.93;;
14698;SDS011;7439;50.804;4.602;2024-02-21T07:47:28;3.30;;;3.03;;
14698;SDS011;7439;50.804;4.602;2024-02-21T07:49:55;4.10;;;3.70;;
14698;SDS011;7439;50.804;4.602;2024-02-21T07:52:24;3.87;;;3.40;;
14698;SDS011;7439;50.804;4.602;2024-02-21T07:54:51;4.07;;;3.67;;
14698;SDS011;7439;50.804;4.602;2024-02-21T07:57:19;6.10;;;4.57;;
14698;SDS011;7439;50.804;4.602;2024-02-21T07:59:47;4.77;;;4.37;;
14698;SDS011;7439;50.804;4.602;2024-02-21T08:02:14;5.40;;;4.93;;
14698;SDS011;7439;50.804;4.602;2024-02-21T08:04:41;5.33;;;4.83;;
14698;SDS011;7439;50.804;4.602;2024-02-21T08:07:09;5.97;;;5.47;;
14698;SDS011;7439;50.804;4.602;2024-02-21T08:09:39;6.23;;;5.60;;
14698;SDS011;7439;50.804;4.602;2024-02-21T08:12:06;6.73;;;5.57;;
14698;SDS011;7439;50.804;4.602;2024-02-21T08:14:34;5.73;;;5.23;;
14698;SDS011;7439;50.804;4.602;2024-02-21T08:17:01;7.57;;;5.03;;
14698;SDS011;7439;50.804;4.602;2024-02-21T08:19:29;7.53;;;5.83;;
14698;SDS011;7439;50.804;4.602;2024-02-21T08:21:56;7.37;;;5.33;;
14698;SDS011;7439;50.804;4.602;2024-02-21T08:24:23;7.37;;;5.50;;
14698;SDS011;7439;50.804;4.602;2024-02-21T08:26:52;6.23;;;4.97;;
14698;SDS011;7439;50.804;4.602;2024-02-21T08:29:20;6.60;;;5.57;;
14698;SDS011;7439;50.804;4.602;2024-02-21T08:31:47;6.33;;;4.93;;
14698;SDS011;7439;50.804;4.602;2024-02-21T08:34:14;6.63;;;4.73;;
14698;SDS011;7439;50.804;4.602;2024-02-21T08:36:42;7.80;;;4.77;;
14698;SDS011;7439;50.804;4.602;2024-02-21T08:39:10;9.00;;;5.83;;
14698;SDS011;7439;50.804;4.602;2024-02-21T08:41:41;7.03;;;4.33;;
14698;SDS011;7439;50.804;4.602;2024-02-21T08:44:10;7.10;;;4.90;;
14698;SDS011;7439;50.804;4.602;2024-02-21T08:46:38;4.40;;;3.93;;
14698;SDS011;7439;50.804;4.602;2024-02-21T08:49:05;7.00;;;5.20;;
14698;SDS011;7439;50.804;4.602;2024-02-21T08:51:33;11.43;;;5.50;;
14698;SDS011;7439;50.804;4.602;2024-02-21T08:54:00;6.57;;;4.57;;
14698;SDS011;7439;50.804;4.602;2024-02-21T08:56:29;6.33;;;4.33;;
14698;SDS011;7439;50.804;4.602;2024-02-21T08:58:57;5.97;;;4.20;;
14698;SDS011;7439;50.804;4.602;2024-02-21T09:01:27;7.50;;;4.73;;
14698;SDS011;7439;50.804;4.602;2024-02-21T09:03:54;6.73;;;4.60;;
14698;SDS011;7439;50.804;4.602;2024-02-21T09:06:22;6.87;;;5.10;;
14698;SDS011;7439;50.804;4.602;2024-02-21T09:08:50;7.00;;;4.30;;
14698;SDS011;7439;50.804;4.602;2024-02-21T09:11:17;9.37;;;4.73;;
14698;SDS011;7439;50.804;4.602;2024-02-21T09:13:44;8.00;;;4.60;;
14698;SDS011;7439;50.804;4.602;2024-02-21T09:16:12;6.87;;;4.70;;
14698;SDS011;7439;50.804;4.602;2024-02-21T09:18:40;8.17;;;5.47;;
14698;SDS011;7439;50.804;4.602;2024-02-21T09:21:08;6.80;;;4.60;;
14698;SDS011;7439;50.804;4.602;2024-02-21T09:23:35;6.10;;;4.73;;
14698;SDS011;7439;50.804;4.602;2024-02-21T09:26:02;8.40;;;5.30;;
14698;SDS011;7439;50.804;4.602;2024-02-21T09:28:30;9.53;;;5.43;;
14698;SDS011;7439;50.804;4.602;2024-02-21T09:30:59;7.67;;;4.70;;
14698;SDS011;7439;50.804;4.602;2024-02-21T09:33:27;8.17;;;4.93;;
14698;SDS011;7439;50.804;4.602;2024-02-21T09:35:55;7.13;;;4.97;;
14698;SDS011;7439;50.804;4.602;2024-02-21T09:38:23;6.63;;;4.37;;
14698;SDS011;7439;50.804;4.602;2024-02-21T09:40:52;7.63;;;4.70;;
14698;SDS011;7439;50.804;4.602;2024-02-21T09:43:23;6.83;;;4.80;;
14698;SDS011;7439;50.804;4.602;2024-02-21T09:45:50;6.50;;;4.83;;
14698;SDS011;7439;50.804;4.602;2024-02-21T09:48:32;6.57;;;4.30;;
14698;SDS011;7439;50.804;4.602;2024-02-21T09:51:02;7.07;;;4.13;;
14698;SDS011;7439;50.804;4.602;2024-02-21T09:53:31;5.77;;;4.60;;
14698;SDS011;7439;50.804;4.602;2024-02-21T09:55:59;6.03;;;4.53;;
14698;SDS011;7439;50.804;4.602;2024-02-21T09:58:27;6.60;;;4.63;;
14698;SDS011;7439;50.804;4.602;2024-02-21T10:00:54;6.93;;;5.17;;
14698;SDS011;7439;50.804;4.602;2024-02-21T10:03:22;4.73;;;4.20;;
14698;SDS011;7439;50.804;4.602;2024-02-21T10:05:49;7.27;;;4.37;;
14698;SDS011;7439;50.804;4.602;2024-02-21T10:08:19;6.20;;;4.37;;
14698;SDS011;7439;50.804;4.602;2024-02-21T10:10:46;5.33;;;4.73;;
14698;SDS011;7439;50.804;4.602;2024-02-21T10:13:24;6.60;;;4.77;;
14698;SDS011;7439;50.804;4.602;2024-02-21T10:16:00;6.33;;;4.80;;
14698;SDS011;7439;50.804;4.602;2024-02-21T10:18:27;6.30;;;4.80;;
14698;SDS011;7439;50.804;4.602;2024-02-21T10:21:01;6.67;;;4.23;;
14698;SDS011;7439;50.804;4.602;2024-02-21T10:23:40;12.03;;;5.13;;
14698;SDS011;7439;50.804;4.602;2024-02-21T10:26:07;7.67;;;4.73;;
14698;SDS011;7439;50.804;4.602;2024-02-21T10:28:34;7.67;;;4.27;;
14698;SDS011;7439;50.804;4.602;2024-02-21T10:31:02;6.90;;;4.63;;
14698;SDS011;7439;50.804;4.602;2024-02-21T10:33:29;6.30;;;4.30;;
14698;SDS011;7439;50.804;4.602;2024-02-21T10:36:05;7.63;;;4.63;;
14698;SDS011;7439;50.804;4.602;2024-02-21T10:38:35;6.27;;;4.17;;
14698;SDS011;7439;50.804;4.602;2024-02-21T10:41:03;9.40;;;4.93;;
14698;SDS011;7439;50.804;4.602;2024-02-21T10:43:32;5.53;;;3.87;;
14698;SDS011;7439;50.804;4.602;2024-02-21T10:46:01;11.53;;;4.40;;
14698;SDS011;7439;50.804;4.602;2024-02-21T10:48:32;5.67;;;3.90;;
14698;SDS011;7439;50.804;4.602;2024-02-21T10:51:02;8.77;;;4.50;;
14698;SDS011;7439;50.804;4.602;2024-02-21T10:53:34;7.07;;;4.47;;
14698;SDS011;7439;50.804;4.602;2024-02-21T10:56:06;6.17;;;4.20;;
14698;SDS011;7439;50.804;4.602;2024-02-21T10:58:37;8.90;;;4.27;;
14698;SDS011;7439;50.804;4.602;2024-02-21T11:01:05;5.87;;;3.33;;
14698;SDS011;7439;50.804;4.602;2024-02-21T11:03:33;6.10;;;4.33;;
14698;SDS011;7439;50.804;4.602;2024-02-21T11:06:00;5.03;;;3.80;;
14698;SDS011;7439;50.804;4.602;2024-02-21T11:08:30;6.37;;;3.90;;
14698;SDS011;7439;50.804;4.602;2024-02-21T11:10:58;6.03;;;4.17;;
14698;SDS011;7439;50.804;4.602;2024-02-21T11:13:34;9.27;;;3.97;;
14698;SDS011;7439;50.804;4.602;2024-02-21T11:16:06;5.73;;;4.13;;
14698;SDS011;7439;50.804;4.602;2024-02-21T11:18:34;9.83;;;4.43;;
14698;SDS011;7439;50.804;4.602;2024-02-21T11:21:01;8.17;;;3.47;;
14698;SDS011;7439;50.804;4.602;2024-02-21T11:23:30;6.57;;;4.00;;
14698;SDS011;7439;50.804;4.602;2024-02-21T11:26:04;10.00;;;4.13;;
14698;SDS011;7439;50.804;4.602;2024-02-21T11:28:31;8.33;;;4.03;;
14698;SDS011;7439;50.804;4.602;2024-02-21T11:31:11;5.93;;;4.27;;
14698;SDS011;7439;50.804;4.602;2024-02-21T11:33:40;7.40;;;3.97;;
14698;SDS011;7439;50.804;4.602;2024-02-21T11:36:07;4.77;;;3.60;;
14698;SDS011;7439;50.804;4.602;2024-02-21T11:38:35;8.07;;;4.03;;
14698;SDS011;7439;50.804;4.602;2024-02-21T11:41:02;3.70;;;2.83;;
14698;SDS011;7439;50.804;4.602;2024-02-21T11:43:30;7.57;;;3.60;;
14698;SDS011;7439;50.804;4.602;2024-02-21T11:46:01;3.77;;;3.30;;
14698;SDS011;7439;50.804;4.602;2024-02-21T11:48:31;4.87;;;3.40;;
14698;SDS011;7439;50.804;4.602;2024-02-21T11:50:58;5.50;;;3.90;;
14698;SDS011;7439;50.804;4.602;2024-02-21T11:53:26;10.37;;;3.43;;
14698;SDS011;7439;50.804;4.602;2024-02-21T11:55:56;5.00;;;3.60;;
14698;SDS011;7439;50.804;4.602;2024-02-21T11:58:25;4.00;;;3.30;;
14698;SDS011;7439;50.804;4.602;2024-02-21T12:00:53;3.93;;;3.20;;
14698;SDS011;7439;50.804;4.602;2024-02-21T12:03:20;6.00;;;3.90;;
14698;SDS011;7439;50.804;4.602;2024-02-21T12:05:49;9.17;;;3.63;;
14698;SDS011;7439;50.804;4.602;2024-02-21T12:08:16;6.93;;;3.43;;
14698;SDS011;7439;50.804;4.602;2024-02-21T12:10:44;5.93;;;3.10;;
14698;SDS011;7439;50.804;4.602;2024-02-21T12:13:16;8.47;;;3.20;;
14698;SDS011;7439;50.804;4.602;2024-02-21T12:15:48;3.73;;;3.20;;
14698;SDS011;7439;50.804;4.602;2024-02-21T12:18:15;6.77;;;3.43;;
14698;SDS011;7439;50.804;4.602;2024-02-21T12:20:42;7.60;;;3.37;;
14698;SDS011;7439;50.804;4.602;2024-02-21T12:23:13;7.17;;;4.30;;
14698;SDS011;7439;50.804;4.602;2024-02-21T12:25:41;6.60;;;3.33;;
14698;SDS011;7439;50.804;4.602;2024-02-21T12:28:09;4.23;;;3.07;;
14698;SDS011;7439;50.804;4.602;2024-02-21T12:30:36;5.37;;;3.20;;
14698;SDS011;7439;50.804;4.602;2024-02-21T12:33:05;3.50;;;3.17;;
14698;SDS011;7439;50.804;4.602;2024-02-21T12:35:32;4.13;;;3.20;;
14698;SDS011;7439;50.804;4.602;2024-02-21T12:38:00;5.53;;;3.80;;
14698;SDS011;7439;50.804;4.602;2024-02-21T12:40:29;7.60;;;3.60;;
14698;SDS011;7439;50.804;4.602;2024-02-21T12:42:58;4.13;;;3.43;;
14698;SDS011;7439;50.804;4.602;2024-02-21T12:45:25;4.67;;;3.20;;
14698;SDS011;7439;50.804;4.602;2024-02-21T12:47:52;6.07;;;3.43;;
14698;SDS011;7439;50.804;4.602;2024-02-21T12:50:20;9.73;;;4.10;;
14698;SDS011;7439;50.804;4.602;2024-02-21T12:52:47;5.23;;;3.60;;
14698;SDS011;7439;50.804;4.602;2024-02-21T12:55:15;5.13;;;3.37;;
14698;SDS011;7439;50.804;4.602;2024-02-21T12:57:44;5.00;;;3.50;;
14698;SDS011;7439;50.804;4.602;2024-02-21T13:00:12;7.13;;;4.20;;
14698;SDS011;7439;50.804;4.602;2024-02-21T13:02:39;9.10;;;4.13;;
14698;SDS011;7439;50.804;4.602;2024-02-21T13:05:08;4.57;;;4.13;;
14698;SDS011;7439;50.804;4.602;2024-02-21T13:07:35;5.97;;;4.30;;
14698;SDS011;7439;50.804;4.602;2024-02-21T13:10:03;5.63;;;3.90;;
14698;SDS011;7439;50.804;4.602;2024-02-21T13:12:30;8.60;;;3.47;;
14698;SDS011;7439;50.804;4.602;2024-02-21T13:14:59;6.77;;;4.10;;
14698;SDS011;7439;50.804;4.602;2024-02-21T13:17:26;5.73;;;4.30;;
14698;SDS011;7439;50.804;4.602;2024-02-21T13:19:56;9.63;;;3.97;;
14698;SDS011;7439;50.804;4.602;2024-02-21T13:22:24;6.53;;;3.73;;
14698;SDS011;7439;50.804;4.602;2024-02-21T13:24:52;5.57;;;3.70;;
14698;SDS011;7439;50.804;4.602;2024-02-21T13:27:19;4.87;;;3.60;;
14698;SDS011;7439;50.804;4.602;2024-02-21T13:29:46;8.37;;;4.43;;
14698;SDS011;7439;50.804;4.602;2024-02-21T13:32:15;6.57;;;3.83;;
14698;SDS011;7439;50.804;4.602;2024-02-21T13:34:42;4.53;;;3.37;;
14698;SDS011;7439;50.804;4.602;2024-02-21T13:37:10;5.33;;;4.30;;
14698;SDS011;7439;50.804;4.602;2024-02-21T13:39:38;5.50;;;3.70;;
14698;SDS011;7439;50.804;4.602;2024-02-21T13:42:06;5.07;;;4.53;;
14698;SDS011;7439;50.804;4.602;2024-02-21T13:44:33;6.80;;;4.20;;
14698;SDS011;7439;50.804;4.602;2024-02-21T13:47:01;5.43;;;3.47;;
14698;SDS011;7439;50.804;4.602;2024-02-21T13:49:31;6.63;;;3.97;;
14698;SDS011;7439;50.804;4.602;2024-02-21T13:51:58;8.60;;;4.53;;
14698;SDS011;7439;50.804;4.602;2024-02-21T13:54:26;6.70;;;3.40;;
14698;SDS011;7439;50.804;4.602;2024-02-21T13:56:53;6.63;;;3.47;;
14698;SDS011;7439;50.804;4.602;2024-02-21T13:59:20;8.70;;;4.50;;
14698;SDS011;7439;50.804;4.602;2024-02-21T14:01:48;9.30;;;5.03;;
14698;SDS011;7439;50.804;4.602;2024-02-21T14:04:15;5.17;;;4.17;;
14698;SDS011;7439;50.804;4.602;2024-02-21T14:06:44;5.20;;;4.23;;
14698;SDS011;7439;50.804;4.602;2024-02-21T14:09:11;6.67;;;4.33;;
14698;SDS011;7439;50.804;4.602;2024-02-21T14:11:39;6.73;;;4.50;;
14698;SDS011;7439;50.804;4.602;2024-02-21T14:14:07;6.40;;;4.50;;
14698;SDS011;7439;50.804;4.602;2024-02-21T14:16:34;5.73;;;4.30;;
14698;SDS011;7439;50.804;4.602;2024-02-21T14:19:02;5.43;;;4.03;;
14698;SDS011;7439;50.804;4.602;2024-02-21T14:21:30;6.77;;;4.53;;
14698;SDS011;7439;50.804;4.602;2024-02-21T14:23:58;4.83;;;3.80;;
14698;SDS011;7439;50.804;4.602;2024-02-21T14:26:28;6.70;;;3.57;;
14698;SDS011;7439;50.804;4.602;2024-02-21T14:28:56;4.90;;;3.90;;
14698;SDS011;7439;50.804;4.602;2024-02-21T14:31:23;6.67;;;3.80;;
14698;SDS011;7439;50.804;4.602;2024-02-21T14:33:51;6.30;;;3.63;;
14698;SDS011;7439;50.804;4.602;2024-02-21T14:36:19;4.23;;;3.53;;
14698;SDS011;7439;50.804;4.602;2024-02-21T14:38:49;3.57;;;3.20;;
14698;SDS011;7439;50.804;4.602;2024-02-21T14:41:18;5.20;;;3.83;;
14698;SDS011;7439;50.804;4.602;2024-02-21T14:43:46;3.63;;;3.33;;
14698;SDS011;7439;50.804;4.602;2024-02-21T14:46:13;4.83;;;3.07;;
14698;SDS011;7439;50.804;4.602;2024-02-21T14:48:40;4.43;;;3.53;;
14698;SDS011;7439;50.804;4.602;2024-02-21T14:51:08;3.23;;;2.90;;
14698;SDS011;7439;50.804;4.602;2024-02-21T14:53:35;2.73;;;2.53;;
14698;SDS011;7439;50.804;4.602;2024-02-21T14:56:02;3.00;;;2.70;;
14698;SDS011;7439;50.804;4.602;2024-02-21T14:58:31;4.97;;;3.10;;
14698;SDS011;7439;50.804;4.602;2024-02-21T15:01:00;3.13;;;2.87;;
14698;SDS011;7439;50.804;4.602;2024-02-21T15:03:28;3.70;;;2.70;;